TAF Text Data
IDs:
Format:
Raw Decoded Include METAR

Data at: 1755 UTC 20 Jan 2019

KTYS 201653Z 35008KT 10SM OVC024 M02/M07 A3006 RMK AO2 SLP182 T10171072 $

KTYS 201732Z 2018/2118 34010G18KT P6SM BKN025
  TEMPO 2019/2021 SCT030
  FM202100 34009G17KT P6SM SCT100
  FM210100 36008KT P6SM BKN090
  FM210500 02007KT P6SM SCT250


KGSO 201654Z 31018G25KT 10SM FEW035 FEW065 FEW100 06/M03 A2964 RMK AO2 PK WND 32030/1556 SLP034 T00561033

KGSO 201737Z 2018/2118 32018G32KT P6SM FEW250
  FM211200 32008KT P6SM SKC


KCLT 201752Z 32018G29KT 10SM FEW042 FEW090 FEW250 08/M03 A2973 RMK AO2 PK WND 33030/1739 SLP068 60000 T00781033 10106 20067 51033

KCLT 201737Z 2018/2124 31014G25KT P6SM FEW090
  FM210000 31007KT P6SM SKC


KRDU 201751Z 34008G24KT 260V020 10SM FEW040 FEW070 09/M02 A2959 RMK AO2 SLP018 T00941017 10133 20089 51040

KRDU 201745Z 2018/2118 31013G27KT P6SM SCT200
  FM201900 31009G16KT P6SM BKN250


KPOB 201736Z AUTO 33012G22KT 10SM FEW050 OVC070 11/01 A2959 RMK AO2 SLP023 $

TAF AMD KPOB 201254Z 2012/2116 24012G18KT 9999 SCT017 510005 QNH2941INS
  TEMPO 2012/2015 BKN017
  BECMG 2014/2015 30015G25KT 9999 BKN017 510005 QNH2949INS
  TEMPO 2016/2019 30015G30KT
  BECMG 2018/2019 32015G30KT 9999 FEW070 510005 QNH2955INS
  BECMG 2101/2102 32015G25KT 9999 SKC 510005 QNH3008INS
  BECMG 2114/2115 33012G18KT 9999 SKC 510005 QNH3034INS TX15/2012Z TNM07/2102Z


KFBG 201723Z AUTO 31013G21KT 10SM SCT033 OVC048 11/02 A2957 RMK AO2 SLP016

TAF AMD KFBG 201246Z 2012/2116 24010G15KT 9999 BKN090 510005 QNH2941INS
  BECMG 2014/2015 30015G25KT 9999 BKN090 510005 QNH2949INS
  TEMPO 2016/2019 30015G30KT
  BECMG 2018/2019 32015G30KT 9999 FEW070 510005 QNH2955INS
  BECMG 2101/2102 32015G25KT 9999 SKC 510005 QNH3008INS
  BECMG 2114/2115 33012G18KT 9999 SKC 510005 QNH3034INS TX14/2012Z TNM07/2102Z


KFAY 201653Z 28013G20KT 10SM OVC038 12/06 A2956 RMK AO2 PK WND 30029/1627 SLP003 T01170056 $

KFAY 201742Z 2018/2118 31015G29KT P6SM SCT060
  FM202300 30014KT P6SM SKC
  FM210900 33008G14KT P6SM SKC


KRWI 201653Z AUTO 31018G24KT 10SM OVC038 11/06 A2951 RMK AO2 PK WND 30027/1611 WSHFT 1609 RAB17E48 SLP992 P0000 T01060056

KRWI 201744Z 2018/2118 31013G27KT P6SM SCT060
  FM201900 31015G28KT P6SM SCT130
  FM210400 31010G15KT P6SM SKC


KISO 201656Z 26009G18KT 10SM BKN028 OVC035 15/09 A2949

KISO 201752Z 2018/2118 30015G25KT P6SM SCT025 BKN035
  TEMPO 2018/2019 BKN025
  FM201900 31015G25KT P6SM BKN070
  FM202200 31015G25KT P6SM SCT250 AMD LTD TO CLD VIS AND WIND


KGWW 201740Z AUTO 31006KT 7SM -DZ OVC033 10/07 A2953 RMK AO2 T00960070


KGSB 201745Z AUTO 31010KT 10SM SCT023 OVC029 11/07 A2951 RMK AO2 RAB19E45 CIG 022V029 SLP996 $


KDPL 201740Z AUTO 27009G18KT 10SM SCT026 BKN032 OVC041 13/09 A2952 RMK AO2


KCTZ 201740Z AUTO 29012G21KT 10SM BKN027 BKN032 BKN042 12/08 A2955 RMK AO2 T01180075


KORF 201751Z 35011G24KT 10SM SCT021 BKN029 OVC055 09/08 A2943 RMK AO2 PK WND 36028/1734 WSHFT 1729 RAB12E36 PRESRR SLP965 P0004 60007 T00890078 10178 20089 53019

KORF 201738Z 2018/2118 34020G32KT P6SM VCSH BKN025 BKN045
  FM202100 33020G32KT P6SM SCT100
  FM210600 33014G22KT P6SM SKC


KLFI 201734Z AUTO 33018G26KT 5SM -RA BR SCT014 BKN019 BKN030 OVC035 11/09 A2943 RMK AO2 RAB19 CIG 014V030 CIG 012 RWY08 PRESRR SLP973 $


KNTU 201656Z 26010KT 10SM SCT029 BKN039 BKN065 17/11 A2938 RMK AO2 SLP950 T01670111

TAF KNTU 2015/2115 19018G30KT 9999 VCSH FEW025 BKN050 BKN250 520009 QNH2935INS
  BECMG 2017/2019 30025G40KT 9999 NSW FEW025 SCT250 520009 QNH2945INS
  BECMG 2109/2111 32018G30KT 9999 FEW250 520009 QNH3010INS T15/2015Z TM07/2111Z FN00196


KECG 201723Z 25011KT 10SM FEW026 SCT032 BKN060 18/12 A2940 RMK AO2 T01780117 $

KECG 201738Z 2018/2118 25012G20KT P6SM VCSH SCT025 BKN050
  FM201900 34020G32KT P6SM VCSH BKN025
  FM202100 33020G30KT P6SM SCT060
  FM210300 32014G22KT P6SM SKC
  FM211400 31015G25KT P6SM SKC


KEWN 201654Z 26013G20KT 10SM FEW031 16/11 A2949 RMK AO2 PK WND 26026/1618 SLP985 T01610106

KEWN 201747Z 2018/2118 28013G23KT P6SM VCSH SCT020 BKN025
  TEMPO 2018/2020 BKN035
  FM202000 30015G25KT P6SM OVC050
  FM202300 31015G26KT P6SM SCT250


KNKT 201654Z 25020G25KT 10SM FEW035 BKN055 17/11 A2949 RMK AO2 SLP982 T01670111

TAF KNKT 2015/2115 25010KT 9999 SCT010 BKN025 QNH2945INS
  TEMPO 2015/2021 3200 BR BKN010
  FM202100 30015KT 9999 SCT030 BKN050 QNH2950INS
  FM210300 33012KT 9999 SCT100 QNH2970INS T18/2018Z TM02/2112Z


KILM 201653Z 27017KT 10SM FEW024 SCT029 OVC042 14/09 A2954 RMK AO2 PK WND 26026/1626 RAB23E33 SLP004 P0000 T01440094

KILM 201720Z 2018/2118 29018G28KT P6SM VCSH SCT025 BKN040
  FM202100 30016G24KT P6SM SCT060
  FM210000 32012KT P6SM SKC
  FM211500 32013G21KT P6SM SKC


KCAE 201656Z 30016G25KT 10SM BKN037 BKN060 10/02 A2972 RMK AO2 PK WND 30027/1617 SLP063 T01000022

KCAE 201735Z 2018/2118 29015G25KT P6SM SCT040
  FM202300 30012KT P6SM SKC
  FM210600 32005KT P6SM SKC
  FM211400 34009KT P6SM SKC


KSSC 201730Z 31014G20KT 10SM FEW037 BKN055 11/01 A2969 RMK AO2A WSHFT 20 SLP055 TSNO $

TAF KSSC 201600Z 2016/2122 24015G25KT 9999 SCT025 BKN040 510015 QNH2953INS
  TEMPO 2016/2019 28025G35KT 520005
  BECMG 2018/2019 31015G25KT 9999 SCT040 510015 QNH2966INS
  BECMG 2023/2024 33012KT 9999 SKC 510015 QNH2991INS
  BECMG 2117/2118 35009KT 9999 SKC QNH3035INS TX11/2018Z TNM04/2111Z


KMMT 201656Z AUTO 29012G17KT 10SM BKN036 11/02 A2972 RMK AO2 SLP066 T01050018 $

TAF KMMT 201600Z 2016/2122 24015G25KT 9999 SCT025 BKN040 510015 QNH2953INS
  TEMPO 2016/2019 28025G35KT 520005
  BECMG 2018/2019 31015G25KT 9999 SCT040 510015 QNH2966INS
  BECMG 2023/2024 33012KT 9999 SKC 510015 QNH2991INS
  BECMG 2117/2118 35009KT 9999 SKC QNH3035INS TX11/2018Z TNM04/2111Z


KMYR 201708Z 30021G28KT 10SM BKN032 12/04 A2964 RMK AO2 PK WND 30028/1707

KMYR 201720Z 2018/2118 29016G26KT P6SM BKN035
  FM202000 31018G28KT P6SM BKN050
  FM210100 32012KT P6SM SKC
  FM211300 34016G24KT P6SM SKC


KCHS 201656Z 28020G30KT 10SM BKN032 09/02 A2972 RMK AO2 PK WND 27030/1655 SLP063 T00890017

KCHS 201738Z 2018/2118 29014G26KT P6SM SCT035
  FM210000 31010KT P6SM SKC
  FM210700 33005KT P6SM SKC
  FM211400 01008KT P6SM SKC


KSAV 201653Z 28023G30KT 10SM BKN028 OVC032 06/00 A2983 RMK AO2 PK WND 29034/1640 SLP099 T00610000 $

KSAV 201738Z 2018/2118 28015G27KT P6SM SCT035
  FM210000 30010KT P6SM SKC
  FM210900 32005KT P6SM SKC
  FM211400 36007KT P6SM SKC


KSVN 201726Z AUTO 30019G29KT 10SM OVC031 06/01 A2980 RMK AO2 SLP094 FZRANO $

TAF AMD KSVN 201651Z 2016/2119 28015G25KT 9999 FEW020 QNH2974INS
  TEMPO 2016/2020 28025G35KT
  BECMG 2021/2022 30015G25KT 9999 FEW050 QNH2988INS
  BECMG 2023/2024 29010G20KT 9999 SKC QNH2997INS
  BECMG 2111/2112 320009KT 9999 SKC QNH3026INS TX12/2021Z TN01/2113Z


KDCA 201752Z 30024G38KT 10SM FEW038 BKN110 02/M07 A2958 RMK AO2 PK WND 31038/1745 SLP016 BINOVC 60000 T00171067 10067 20017 51041

KDCA 201722Z 2018/2124 32020G40KT P6SM SCT045 BKN100
  FM202000 32020G40KT P6SM SCT045 SCT100
  FM202300 31019G34KT P6SM SCT045
  FM212100 31015G23KT P6SM SKC


KADW 201656Z AUTO 31019G31KT 10SM SCT030 03/M03 A2949 RMK AO2 PK WND 31039/23 RAB08E19 SLP995 P0000 T00291035 $

TAF KADW 201700Z 2017/2123 31025G35KT 9999 FEW030 BKN050 510006 QNH2948INS
  BECMG 2020/2021 31030G40KT 9999 SCT025 520008 QNH2967INS TX04/2017Z TNM11/2111Z